sensor_id;sensor_type;location;lat;lon;timestamp;temperature;humidity
47336;DHT22;33068;51.990;5.926;2023-06-05T00:01:44;12.10;99.90
47336;DHT22;33068;51.990;5.926;2023-06-05T00:04:11;12.10;99.90
47336;DHT22;33068;51.990;5.926;2023-06-05T00:06:40;12.20;99.90
47336;DHT22;33068;51.990;5.926;2023-06-05T00:09:08;12.10;99.90
47336;DHT22;33068;51.990;5.926;2023-06-05T00:11:35;12.10;99.90
47336;DHT22;33068;51.990;5.926;2023-06-05T00:14:03;12.00;99.90
47336;DHT22;33068;51.990;5.926;2023-06-05T00:16:31;11.90;99.90
47336;DHT22;33068;51.990;5.926;2023-06-05T00:18:59;11.90;99.90
47336;DHT22;33068;51.990;5.926;2023-06-05T00:21:26;11.70;99.90
47336;DHT22;33068;51.990;5.926;2023-06-05T00:23:54;11.80;99.90
47336;DHT22;33068;51.990;5.926;2023-06-05T00:26:21;11.70;99.90
47336;DHT22;33068;51.990;5.926;2023-06-05T00:28:49;11.70;99.90
47336;DHT22;33068;51.990;5.926;2023-06-05T00:31:16;11.70;99.90
47336;DHT22;33068;51.990;5.926;2023-06-05T00:33:44;11.70;99.90
47336;DHT22;33068;51.990;5.926;2023-06-05T00:36:12;11.60;99.90
47336;DHT22;33068;51.990;5.926;2023-06-05T00:38:39;11.60;99.90
47336;DHT22;33068;51.990;5.926;2023-06-05T00:41:07;11.50;99.90
47336;DHT22;33068;51.990;5.926;2023-06-05T00:43:34;11.50;99.90
47336;DHT22;33068;51.990;5.926;2023-06-05T00:46:03;11.60;99.90
47336;DHT22;33068;51.990;5.926;2023-06-05T00:48:34;11.50;99.90
47336;DHT22;33068;51.990;5.926;2023-06-05T00:51:01;11.40;99.90
47336;DHT22;33068;51.990;5.926;2023-06-05T00:53:30;11.50;99.90
47336;DHT22;33068;51.990;5.926;2023-06-05T00:55:59;11.40;99.90
47336;DHT22;33068;51.990;5.926;2023-06-05T00:58:29;11.40;99.90
47336;DHT22;33068;51.990;5.926;2023-06-05T01:00:58;11.30;99.90
47336;DHT22;33068;51.990;5.926;2023-06-05T01:03:25;11.30;99.90
47336;DHT22;33068;51.990;5.926;2023-06-05T01:05:57;11.20;99.90
47336;DHT22;33068;51.990;5.926;2023-06-05T01:08:34;11.30;99.90
47336;DHT22;33068;51.990;5.926;2023-06-05T01:13:55;11.10;99.90
47336;DHT22;33068;51.990;5.926;2023-06-05T01:16:24;11.10;99.90
47336;DHT22;33068;51.990;5.926;2023-06-05T01:18:57;11.20;99.90
47336;DHT22;33068;51.990;5.926;2023-06-05T01:21:29;11.00;99.90
47336;DHT22;33068;51.990;5.926;2023-06-05T01:23:58;11.00;99.90
47336;DHT22;33068;51.990;5.926;2023-06-05T01:26:33;11.00;99.90
47336;DHT22;33068;51.990;5.926;2023-06-05T01:29:04;11.00;99.90
47336;DHT22;33068;51.990;5.926;2023-06-05T01:31:33;11.00;99.90
47336;DHT22;33068;51.990;5.926;2023-06-05T01:34:07;10.90;99.90
47336;DHT22;33068;51.990;5.926;2023-06-05T01:36:38;10.90;99.90
47336;DHT22;33068;51.990;5.926;2023-06-05T01:39:09;10.90;99.90
47336;DHT22;33068;51.990;5.926;2023-06-05T01:41:39;10.90;99.90
47336;DHT22;33068;51.990;5.926;2023-06-05T01:44:07;10.80;99.90
47336;DHT22;33068;51.990;5.926;2023-06-05T01:46:35;10.80;99.90
47336;DHT22;33068;51.990;5.926;2023-06-05T01:49:02;10.80;99.90
47336;DHT22;33068;51.990;5.926;2023-06-05T01:51:31;10.80;99.90
47336;DHT22;33068;51.990;5.926;2023-06-05T01:53:59;10.70;99.90
47336;DHT22;33068;51.990;5.926;2023-06-05T01:56:28;10.70;99.90
47336;DHT22;33068;51.990;5.926;2023-06-05T01:58:56;10.60;99.90
47336;DHT22;33068;51.990;5.926;2023-06-05T02:01:23;10.60;99.90
47336;DHT22;33068;51.990;5.926;2023-06-05T02:03:50;10.50;99.90
47336;DHT22;33068;51.990;5.926;2023-06-05T02:06:19;10.50;99.90
47336;DHT22;33068;51.990;5.926;2023-06-05T02:08:46;10.50;99.90
47336;DHT22;33068;51.990;5.926;2023-06-05T02:11:13;10.40;99.90
47336;DHT22;33068;51.990;5.926;2023-06-05T02:13:42;10.40;99.90
47336;DHT22;33068;51.990;5.926;2023-06-05T02:16:10;10.40;99.90
47336;DHT22;33068;51.990;5.926;2023-06-05T02:18:41;10.40;99.90
47336;DHT22;33068;51.990;5.926;2023-06-05T02:21:09;10.40;99.90
47336;DHT22;33068;51.990;5.926;2023-06-05T02:23:40;10.30;99.90
47336;DHT22;33068;51.990;5.926;2023-06-05T02:26:10;10.30;99.90
47336;DHT22;33068;51.990;5.926;2023-06-05T02:28:38;10.30;99.90
47336;DHT22;33068;51.990;5.926;2023-06-05T02:31:07;10.30;99.90
47336;DHT22;33068;51.990;5.926;2023-06-05T02:33:34;10.30;99.90
47336;DHT22;33068;51.990;5.926;2023-06-05T02:36:01;10.20;99.90
47336;DHT22;33068;51.990;5.926;2023-06-05T02:38:29;10.20;99.90
47336;DHT22;33068;51.990;5.926;2023-06-05T02:40:56;10.20;99.90
47336;DHT22;33068;51.990;5.926;2023-06-05T02:43:38;10.20;99.90
47336;DHT22;33068;51.990;5.926;2023-06-05T02:46:06;10.20;99.90
47336;DHT22;33068;51.990;5.926;2023-06-05T02:48:33;10.10;99.90
47336;DHT22;33068;51.990;5.926;2023-06-05T02:51:01;10.30;99.90
47336;DHT22;33068;51.990;5.926;2023-06-05T02:53:29;10.10;99.90
47336;DHT22;33068;51.990;5.926;2023-06-05T02:55:56;10.10;99.90
47336;DHT22;33068;51.990;5.926;2023-06-05T02:58:26;10.10;99.90
47336;DHT22;33068;51.990;5.926;2023-06-05T03:00:56;10.10;99.90
47336;DHT22;33068;51.990;5.926;2023-06-05T03:03:34;10.00;99.90
47336;DHT22;33068;51.990;5.926;2023-06-05T03:06:02;10.00;99.90
47336;DHT22;33068;51.990;5.926;2023-06-05T03:08:34;10.00;99.90
47336;DHT22;33068;51.990;5.926;2023-06-05T03:11:02;10.00;99.90
47336;DHT22;33068;51.990;5.926;2023-06-05T03:13:30;9.90;99.90
47336;DHT22;33068;51.990;5.926;2023-06-05T03:15:58;9.90;99.90
47336;DHT22;33068;51.990;5.926;2023-06-05T03:18:29;10.00;99.90
47336;DHT22;33068;51.990;5.926;2023-06-05T03:21:01;10.10;99.90
47336;DHT22;33068;51.990;5.926;2023-06-05T03:23:29;9.80;99.90
47336;DHT22;33068;51.990;5.926;2023-06-05T03:25:59;9.80;99.90
47336;DHT22;33068;51.990;5.926;2023-06-05T03:28:32;9.80;99.90
47336;DHT22;33068;51.990;5.926;2023-06-05T03:31:03;9.80;99.90
47336;DHT22;33068;51.990;5.926;2023-06-05T03:33:37;9.80;99.90
47336;DHT22;33068;51.990;5.926;2023-06-05T03:36:06;9.80;99.90
47336;DHT22;33068;51.990;5.926;2023-06-05T03:38:34;9.80;99.90
47336;DHT22;33068;51.990;5.926;2023-06-05T03:41:02;9.80;99.90
47336;DHT22;33068;51.990;5.926;2023-06-05T03:43:29;9.80;99.90
47336;DHT22;33068;51.990;5.926;2023-06-05T03:45:56;9.80;99.90
47336;DHT22;33068;51.990;5.926;2023-06-05T03:48:24;9.70;99.90
47336;DHT22;33068;51.990;5.926;2023-06-05T03:50:53;9.80;99.90
47336;DHT22;33068;51.990;5.926;2023-06-05T03:53:23;9.70;99.90
47336;DHT22;33068;51.990;5.926;2023-06-05T03:55:51;9.70;99.90
47336;DHT22;33068;51.990;5.926;2023-06-05T03:58:25;9.70;99.90
47336;DHT22;33068;51.990;5.926;2023-06-05T04:00:54;9.70;99.90
47336;DHT22;33068;51.990;5.926;2023-06-05T04:03:21;9.70;99.90
47336;DHT22;33068;51.990;5.926;2023-06-05T04:05:51;9.70;99.90
47336;DHT22;33068;51.990;5.926;2023-06-05T04:08:19;9.80;99.90
47336;DHT22;33068;51.990;5.926;2023-06-05T04:10:47;9.80;99.90
47336;DHT22;33068;51.990;5.926;2023-06-05T04:13:14;9.80;99.90
47336;DHT22;33068;51.990;5.926;2023-06-05T04:15:43;9.80;99.90
47336;DHT22;33068;51.990;5.926;2023-06-05T04:18:11;9.90;99.90
47336;DHT22;33068;51.990;5.926;2023-06-05T04:20:39;9.90;99.90
47336;DHT22;33068;51.990;5.926;2023-06-05T04:23:07;9.90;99.90
47336;DHT22;33068;51.990;5.926;2023-06-05T04:25:37;9.80;99.90
47336;DHT22;33068;51.990;5.926;2023-06-05T04:28:08;9.80;99.90
47336;DHT22;33068;51.990;5.926;2023-06-05T04:30:35;9.80;99.90
47336;DHT22;33068;51.990;5.926;2023-06-05T04:33:02;9.80;99.90
47336;DHT22;33068;51.990;5.926;2023-06-05T04:35:33;9.90;99.90
47336;DHT22;33068;51.990;5.926;2023-06-05T04:38:00;9.90;99.90
47336;DHT22;33068;51.990;5.926;2023-06-05T04:40:30;9.90;99.90
47336;DHT22;33068;51.990;5.926;2023-06-05T04:42:57;9.90;99.90
47336;DHT22;33068;51.990;5.926;2023-06-05T04:45:26;9.90;99.90
47336;DHT22;33068;51.990;5.926;2023-06-05T04:47:54;10.00;99.90
47336;DHT22;33068;51.990;5.926;2023-06-05T04:50:23;10.00;99.90
47336;DHT22;33068;51.990;5.926;2023-06-05T04:53:06;10.00;99.90
47336;DHT22;33068;51.990;5.926;2023-06-05T04:55:35;10.00;99.90
47336;DHT22;33068;51.990;5.926;2023-06-05T04:58:03;10.00;99.90
47336;DHT22;33068;51.990;5.926;2023-06-05T05:00:32;10.20;99.90
47336;DHT22;33068;51.990;5.926;2023-06-05T05:03:03;10.20;99.90
47336;DHT22;33068;51.990;5.926;2023-06-05T05:05:31;10.30;99.90
47336;DHT22;33068;51.990;5.926;2023-06-05T05:07:58;10.40;99.90
47336;DHT22;33068;51.990;5.926;2023-06-05T05:10:27;10.40;99.90
47336;DHT22;33068;51.990;5.926;2023-06-05T05:12:55;10.50;99.90
47336;DHT22;33068;51.990;5.926;2023-06-05T05:15:22;10.60;99.90
47336;DHT22;33068;51.990;5.926;2023-06-05T05:17:50;10.70;99.90
47336;DHT22;33068;51.990;5.926;2023-06-05T05:20:17;10.70;99.90
47336;DHT22;33068;51.990;5.926;2023-06-05T05:22:45;10.70;99.90
47336;DHT22;33068;51.990;5.926;2023-06-05T05:25:12;10.80;99.90
47336;DHT22;33068;51.990;5.926;2023-06-05T05:30:24;11.00;99.90
47336;DHT22;33068;51.990;5.926;2023-06-05T05:32:53;11.10;99.90
47336;DHT22;33068;51.990;5.926;2023-06-05T05:35:23;11.10;99.90
47336;DHT22;33068;51.990;5.926;2023-06-05T05:37:51;11.30;99.90
47336;DHT22;33068;51.990;5.926;2023-06-05T05:40:20;11.40;99.90
47336;DHT22;33068;51.990;5.926;2023-06-05T05:42:48;11.50;99.90
47336;DHT22;33068;51.990;5.926;2023-06-05T05:45:17;11.60;99.90
47336;DHT22;33068;51.990;5.926;2023-06-05T05:47:45;11.70;99.90
47336;DHT22;33068;51.990;5.926;2023-06-05T05:50:13;11.70;99.90
47336;DHT22;33068;51.990;5.926;2023-06-05T05:52:40;11.80;99.90
47336;DHT22;33068;51.990;5.926;2023-06-05T05:55:09;11.90;99.90
47336;DHT22;33068;51.990;5.926;2023-06-05T05:57:36;12.00;99.90
47336;DHT22;33068;51.990;5.926;2023-06-05T06:00:04;12.20;99.90
47336;DHT22;33068;51.990;5.926;2023-06-05T06:02:37;12.20;99.90
47336;DHT22;33068;51.990;5.926;2023-06-05T06:05:04;12.20;99.90
47336;DHT22;33068;51.990;5.926;2023-06-05T06:07:33;12.40;99.90
47336;DHT22;33068;51.990;5.926;2023-06-05T06:10:01;12.60;99.90
47336;DHT22;33068;51.990;5.926;2023-06-05T06:12:28;12.50;99.90
47336;DHT22;33068;51.990;5.926;2023-06-05T06:14:55;12.60;99.90
47336;DHT22;33068;51.990;5.926;2023-06-05T06:17:22;12.60;99.90
47336;DHT22;33068;51.990;5.926;2023-06-05T06:19:49;12.70;99.90
47336;DHT22;33068;51.990;5.926;2023-06-05T06:22:17;12.90;99.90
47336;DHT22;33068;51.990;5.926;2023-06-05T06:24:45;13.00;99.90
47336;DHT22;33068;51.990;5.926;2023-06-05T06:27:13;13.10;99.90
47336;DHT22;33068;51.990;5.926;2023-06-05T06:29:47;13.20;99.90
47336;DHT22;33068;51.990;5.926;2023-06-05T06:32:15;13.50;99.90
47336;DHT22;33068;51.990;5.926;2023-06-05T06:34:44;13.60;99.90
47336;DHT22;33068;51.990;5.926;2023-06-05T06:37:12;13.70;99.90
47336;DHT22;33068;51.990;5.926;2023-06-05T06:39:41;13.70;99.90
47336;DHT22;33068;51.990;5.926;2023-06-05T06:42:10;13.80;99.90
47336;DHT22;33068;51.990;5.926;2023-06-05T06:44:41;13.90;99.90
47336;DHT22;33068;51.990;5.926;2023-06-05T06:47:08;13.90;99.90
47336;DHT22;33068;51.990;5.926;2023-06-05T06:49:36;13.90;99.90
47336;DHT22;33068;51.990;5.926;2023-06-05T06:52:04;14.00;99.90
47336;DHT22;33068;51.990;5.926;2023-06-05T06:54:31;14.30;99.90
47336;DHT22;33068;51.990;5.926;2023-06-05T06:57:00;14.40;99.90
47336;DHT22;33068;51.990;5.926;2023-06-05T06:59:29;14.50;99.90
47336;DHT22;33068;51.990;5.926;2023-06-05T07:02:10;14.50;99.90
47336;DHT22;33068;51.990;5.926;2023-06-05T07:04:38;14.60;99.90
47336;DHT22;33068;51.990;5.926;2023-06-05T07:07:08;14.60;99.90
47336;DHT22;33068;51.990;5.926;2023-06-05T07:09:35;14.80;99.90
47336;DHT22;33068;51.990;5.926;2023-06-05T07:12:02;14.90;99.90
47336;DHT22;33068;51.990;5.926;2023-06-05T07:14:36;15.20;99.90
47336;DHT22;33068;51.990;5.926;2023-06-05T07:17:04;15.30;99.90
47336;DHT22;33068;51.990;5.926;2023-06-05T07:19:32;15.50;99.90
47336;DHT22;33068;51.990;5.926;2023-06-05T07:22:00;15.70;99.90
47336;DHT22;33068;51.990;5.926;2023-06-05T07:24:30;15.90;99.90
47336;DHT22;33068;51.990;5.926;2023-06-05T07:27:01;16.00;99.90
47336;DHT22;33068;51.990;5.926;2023-06-05T07:29:29;16.10;99.90
47336;DHT22;33068;51.990;5.926;2023-06-05T07:31:58;16.20;99.90
47336;DHT22;33068;51.990;5.926;2023-06-05T07:34:26;16.40;99.90
47336;DHT22;33068;51.990;5.926;2023-06-05T07:36:54;16.50;99.90
47336;DHT22;33068;51.990;5.926;2023-06-05T07:39:22;16.70;99.90
47336;DHT22;33068;51.990;5.926;2023-06-05T07:41:50;16.70;99.90
47336;DHT22;33068;51.990;5.926;2023-06-05T07:44:19;16.80;99.90
47336;DHT22;33068;51.990;5.926;2023-06-05T07:46:48;16.80;99.90
47336;DHT22;33068;51.990;5.926;2023-06-05T07:49:18;16.90;99.90
47336;DHT22;33068;51.990;5.926;2023-06-05T07:51:46;16.90;99.90
47336;DHT22;33068;51.990;5.926;2023-06-05T07:54:15;17.10;99.90
47336;DHT22;33068;51.990;5.926;2023-06-05T07:56:42;17.20;99.90
47336;DHT22;33068;51.990;5.926;2023-06-05T07:59:10;17.20;99.90
47336;DHT22;33068;51.990;5.926;2023-06-05T08:01:40;17.50;99.90
47336;DHT22;33068;51.990;5.926;2023-06-05T08:04:08;17.80;99.90
47336;DHT22;33068;51.990;5.926;2023-06-05T08:06:38;18.50;99.90
47336;DHT22;33068;51.990;5.926;2023-06-05T08:09:06;19.30;99.50
47336;DHT22;33068;51.990;5.926;2023-06-05T08:11:35;20.00;97.70
47336;DHT22;33068;51.990;5.926;2023-06-05T08:14:04;20.60;95.30
47336;DHT22;33068;51.990;5.926;2023-06-05T08:16:32;21.00;94.50
47336;DHT22;33068;51.990;5.926;2023-06-05T08:18:59;21.20;93.60
47336;DHT22;33068;51.990;5.926;2023-06-05T08:21:26;21.30;93.30
47336;DHT22;33068;51.990;5.926;2023-06-05T08:23:57;21.50;93.10
47336;DHT22;33068;51.990;5.926;2023-06-05T08:26:26;21.60;92.60
47336;DHT22;33068;51.990;5.926;2023-06-05T08:28:53;21.40;92.70
47336;DHT22;33068;51.990;5.926;2023-06-05T08:31:20;21.00;93.60
47336;DHT22;33068;51.990;5.926;2023-06-05T08:33:48;21.10;93.10
47336;DHT22;33068;51.990;5.926;2023-06-05T08:36:15;21.30;93.10
47336;DHT22;33068;51.990;5.926;2023-06-05T08:38:44;21.20;93.00
47336;DHT22;33068;51.990;5.926;2023-06-05T08:41:14;20.80;93.20
47336;DHT22;33068;51.990;5.926;2023-06-05T08:43:42;20.90;94.00
47336;DHT22;33068;51.990;5.926;2023-06-05T08:46:11;21.30;93.20
47336;DHT22;33068;51.990;5.926;2023-06-05T08:48:42;21.50;92.80
47336;DHT22;33068;51.990;5.926;2023-06-05T08:51:10;21.70;92.40
47336;DHT22;33068;51.990;5.926;2023-06-05T08:53:39;21.60;92.80
47336;DHT22;33068;51.990;5.926;2023-06-05T08:56:07;21.50;92.90
47336;DHT22;33068;51.990;5.926;2023-06-05T08:58:36;21.70;92.30
47336;DHT22;33068;51.990;5.926;2023-06-05T09:01:04;21.50;92.60
47336;DHT22;33068;51.990;5.926;2023-06-05T09:03:33;21.60;92.60
47336;DHT22;33068;51.990;5.926;2023-06-05T09:06:00;21.80;93.30
47336;DHT22;33068;51.990;5.926;2023-06-05T09:08:31;22.10;93.00
47336;DHT22;33068;51.990;5.926;2023-06-05T09:11:27;22.00;91.90
47336;DHT22;33068;51.990;5.926;2023-06-05T09:13:57;22.30;92.10
47336;DHT22;33068;51.990;5.926;2023-06-05T09:16:33;22.20;92.10
47336;DHT22;33068;51.990;5.926;2023-06-05T09:19:00;22.50;91.50
47336;DHT22;33068;51.990;5.926;2023-06-05T09:21:31;22.50;91.10
47336;DHT22;33068;51.990;5.926;2023-06-05T09:24:12;22.50;91.30
47336;DHT22;33068;51.990;5.926;2023-06-05T09:26:54;22.40;90.80
47336;DHT22;33068;51.990;5.926;2023-06-05T09:29:40;22.60;90.70
47336;DHT22;33068;51.990;5.926;2023-06-05T09:32:17;22.50;90.60
47336;DHT22;33068;51.990;5.926;2023-06-05T09:34:55;22.60;91.30
47336;DHT22;33068;51.990;5.926;2023-06-05T09:37:32;22.90;90.90
47336;DHT22;33068;51.990;5.926;2023-06-05T09:40:01;23.10;91.00
47336;DHT22;33068;51.990;5.926;2023-06-05T09:42:33;23.00;90.80
47336;DHT22;33068;51.990;5.926;2023-06-05T09:45:02;23.10;89.80
47336;DHT22;33068;51.990;5.926;2023-06-05T09:47:33;23.10;90.70
47336;DHT22;33068;51.990;5.926;2023-06-05T09:50:01;23.40;89.00
47336;DHT22;33068;51.990;5.926;2023-06-05T09:52:30;23.40;89.50
47336;DHT22;33068;51.990;5.926;2023-06-05T09:54:57;23.60;88.30
47336;DHT22;33068;51.990;5.926;2023-06-05T09:57:29;23.70;89.30
47336;DHT22;33068;51.990;5.926;2023-06-05T10:00:03;23.70;87.90
47336;DHT22;33068;51.990;5.926;2023-06-05T10:02:33;24.00;87.10
47336;DHT22;33068;51.990;5.926;2023-06-05T10:05:03;23.80;87.40
47336;DHT22;33068;51.990;5.926;2023-06-05T10:07:33;23.90;87.50
47336;DHT22;33068;51.990;5.926;2023-06-05T10:10:01;24.00;88.80
47336;DHT22;33068;51.990;5.926;2023-06-05T10:12:30;24.10;87.20
47336;DHT22;33068;51.990;5.926;2023-06-05T10:14:57;24.30;87.10
47336;DHT22;33068;51.990;5.926;2023-06-05T10:17:26;24.40;86.80
47336;DHT22;33068;51.990;5.926;2023-06-05T10:19:54;24.40;86.70
47336;DHT22;33068;51.990;5.926;2023-06-05T10:22:23;24.20;87.40
47336;DHT22;33068;51.990;5.926;2023-06-05T10:24:52;24.00;88.10
47336;DHT22;33068;51.990;5.926;2023-06-05T10:27:50;24.60;86.30
47336;DHT22;33068;51.990;5.926;2023-06-05T10:30:45;24.90;84.60
47336;DHT22;33068;51.990;5.926;2023-06-05T10:33:37;25.00;85.50
47336;DHT22;33068;51.990;5.926;2023-06-05T10:36:14;24.90;83.60
47336;DHT22;33068;51.990;5.926;2023-06-05T10:38:44;24.90;83.60
47336;DHT22;33068;51.990;5.926;2023-06-05T10:41:12;24.80;84.10
47336;DHT22;33068;51.990;5.926;2023-06-05T10:43:46;24.30;86.20
47336;DHT22;33068;51.990;5.926;2023-06-05T10:46:30;24.20;85.10
47336;DHT22;33068;51.990;5.926;2023-06-05T10:49:10;24.30;84.70
47336;DHT22;33068;51.990;5.926;2023-06-05T10:51:39;24.20;85.40
47336;DHT22;33068;51.990;5.926;2023-06-05T10:54:09;24.00;86.60
47336;DHT22;33068;51.990;5.926;2023-06-05T10:56:55;24.20;87.20
47336;DHT22;33068;51.990;5.926;2023-06-05T10:59:26;24.80;84.30
47336;DHT22;33068;51.990;5.926;2023-06-05T11:02:21;24.30;84.70
47336;DHT22;33068;51.990;5.926;2023-06-05T11:05:08;24.20;85.40
47336;DHT22;33068;51.990;5.926;2023-06-05T11:07:37;24.40;86.90
47336;DHT22;33068;51.990;5.926;2023-06-05T11:10:12;24.40;84.90
47336;DHT22;33068;51.990;5.926;2023-06-05T11:13:10;24.60;84.10
47336;DHT22;33068;51.990;5.926;2023-06-05T11:15:42;25.00;81.90
47336;DHT22;33068;51.990;5.926;2023-06-05T11:18:30;24.50;83.50
47336;DHT22;33068;51.990;5.926;2023-06-05T11:20:59;24.50;83.90
47336;DHT22;33068;51.990;5.926;2023-06-05T11:23:27;24.80;82.50
47336;DHT22;33068;51.990;5.926;2023-06-05T11:29:11;25.20;83.30
47336;DHT22;33068;51.990;5.926;2023-06-05T11:31:40;25.20;82.50
47336;DHT22;33068;51.990;5.926;2023-06-05T11:34:11;24.90;81.90
47336;DHT22;33068;51.990;5.926;2023-06-05T11:36:40;25.00;82.30
47336;DHT22;33068;51.990;5.926;2023-06-05T11:39:08;25.10;81.80
47336;DHT22;33068;51.990;5.926;2023-06-05T11:41:43;25.20;81.30
47336;DHT22;33068;51.990;5.926;2023-06-05T11:44:11;25.40;82.10
47336;DHT22;33068;51.990;5.926;2023-06-05T11:46:39;25.90;80.90
47336;DHT22;33068;51.990;5.926;2023-06-05T11:49:06;26.10;81.40
47336;DHT22;33068;51.990;5.926;2023-06-05T11:51:34;26.00;80.50
47336;DHT22;33068;51.990;5.926;2023-06-05T11:54:04;26.10;79.90
47336;DHT22;33068;51.990;5.926;2023-06-05T11:56:33;26.30;79.70
47336;DHT22;33068;51.990;5.926;2023-06-05T11:59:00;26.40;78.30
47336;DHT22;33068;51.990;5.926;2023-06-05T12:01:27;26.20;77.80
47336;DHT22;33068;51.990;5.926;2023-06-05T12:04:04;26.20;78.00
47336;DHT22;33068;51.990;5.926;2023-06-05T12:06:31;26.20;77.80
47336;DHT22;33068;51.990;5.926;2023-06-05T12:09:09;25.80;79.20
47336;DHT22;33068;51.990;5.926;2023-06-05T12:11:37;25.60;79.20
47336;DHT22;33068;51.990;5.926;2023-06-05T12:14:05;25.90;78.20
47336;DHT22;33068;51.990;5.926;2023-06-05T12:16:35;26.10;77.20
47336;DHT22;33068;51.990;5.926;2023-06-05T12:19:11;26.30;77.80
47336;DHT22;33068;51.990;5.926;2023-06-05T12:21:42;26.60;76.70
47336;DHT22;33068;51.990;5.926;2023-06-05T12:24:14;26.70;77.30
47336;DHT22;33068;51.990;5.926;2023-06-05T12:26:51;26.30;79.00
47336;DHT22;33068;51.990;5.926;2023-06-05T12:29:23;26.00;78.30
47336;DHT22;33068;51.990;5.926;2023-06-05T12:31:51;26.00;77.60
47336;DHT22;33068;51.990;5.926;2023-06-05T12:34:18;25.90;77.50
47336;DHT22;33068;51.990;5.926;2023-06-05T12:36:45;26.50;77.70
47336;DHT22;33068;51.990;5.926;2023-06-05T12:39:14;26.50;76.30
47336;DHT22;33068;51.990;5.926;2023-06-05T12:41:43;26.70;76.80
47336;DHT22;33068;51.990;5.926;2023-06-05T12:44:10;26.20;76.70
47336;DHT22;33068;51.990;5.926;2023-06-05T12:46:37;26.30;77.50
47336;DHT22;33068;51.990;5.926;2023-06-05T12:49:05;26.20;75.90
47336;DHT22;33068;51.990;5.926;2023-06-05T12:51:32;26.10;75.10
47336;DHT22;33068;51.990;5.926;2023-06-05T12:53:59;25.90;77.10
47336;DHT22;33068;51.990;5.926;2023-06-05T12:56:28;26.30;76.20
47336;DHT22;33068;51.990;5.926;2023-06-05T12:58:57;26.40;75.70
47336;DHT22;33068;51.990;5.926;2023-06-05T13:01:25;26.40;74.30
47336;DHT22;33068;51.990;5.926;2023-06-05T13:03:54;26.30;75.20
47336;DHT22;33068;51.990;5.926;2023-06-05T13:06:21;26.50;75.50
47336;DHT22;33068;51.990;5.926;2023-06-05T13:08:48;26.30;75.90
47336;DHT22;33068;51.990;5.926;2023-06-05T13:11:17;26.20;75.00
47336;DHT22;33068;51.990;5.926;2023-06-05T13:13:45;26.30;76.40
47336;DHT22;33068;51.990;5.926;2023-06-05T13:16:14;26.70;75.00
47336;DHT22;33068;51.990;5.926;2023-06-05T13:18:41;26.90;75.20
47336;DHT22;33068;51.990;5.926;2023-06-05T13:21:08;27.30;72.60
47336;DHT22;33068;51.990;5.926;2023-06-05T13:23:35;27.30;73.90
47336;DHT22;33068;51.990;5.926;2023-06-05T13:26:03;27.50;71.70
47336;DHT22;33068;51.990;5.926;2023-06-05T13:28:30;27.50;73.00
47336;DHT22;33068;51.990;5.926;2023-06-05T13:30:58;27.20;73.90
47336;DHT22;33068;51.990;5.926;2023-06-05T13:33:27;26.70;76.40
47336;DHT22;33068;51.990;5.926;2023-06-05T13:35:54;26.60;75.10
47336;DHT22;33068;51.990;5.926;2023-06-05T13:38:22;26.80;74.50
47336;DHT22;33068;51.990;5.926;2023-06-05T13:40:49;26.70;72.80
47336;DHT22;33068;51.990;5.926;2023-06-05T13:43:18;26.60;76.10
47336;DHT22;33068;51.990;5.926;2023-06-05T13:45:45;27.10;73.40
47336;DHT22;33068;51.990;5.926;2023-06-05T13:48:14;27.50;74.30
47336;DHT22;33068;51.990;5.926;2023-06-05T13:50:41;27.30;73.60
47336;DHT22;33068;51.990;5.926;2023-06-05T13:53:08;27.30;72.80
47336;DHT22;33068;51.990;5.926;2023-06-05T13:55:35;27.00;73.80
47336;DHT22;33068;51.990;5.926;2023-06-05T13:58:05;27.10;72.10
47336;DHT22;33068;51.990;5.926;2023-06-05T14:00:33;27.20;71.50
47336;DHT22;33068;51.990;5.926;2023-06-05T14:03:00;27.80;70.00
47336;DHT22;33068;51.990;5.926;2023-06-05T14:05:30;27.90;70.30
47336;DHT22;33068;51.990;5.926;2023-06-05T14:07:58;27.70;70.20
47336;DHT22;33068;51.990;5.926;2023-06-05T14:10:25;27.80;70.60
47336;DHT22;33068;51.990;5.926;2023-06-05T14:12:52;27.80;71.80
47336;DHT22;33068;51.990;5.926;2023-06-05T14:15:23;27.90;71.60
47336;DHT22;33068;51.990;5.926;2023-06-05T14:17:50;28.40;70.70
47336;DHT22;33068;51.990;5.926;2023-06-05T14:20:19;28.30;70.60
47336;DHT22;33068;51.990;5.926;2023-06-05T14:22:50;28.60;68.90
47336;DHT22;33068;51.990;5.926;2023-06-05T14:25:26;28.60;69.20
47336;DHT22;33068;51.990;5.926;2023-06-05T14:27:57;28.90;68.90
47336;DHT22;33068;51.990;5.926;2023-06-05T14:30:24;29.10;67.20
47336;DHT22;33068;51.990;5.926;2023-06-05T14:32:53;29.00;66.60
47336;DHT22;33068;51.990;5.926;2023-06-05T14:35:21;29.20;68.80
47336;DHT22;33068;51.990;5.926;2023-06-05T14:37:49;28.70;68.90
47336;DHT22;33068;51.990;5.926;2023-06-05T14:40:16;28.70;68.90
47336;DHT22;33068;51.990;5.926;2023-06-05T14:42:44;28.70;67.70
47336;DHT22;33068;51.990;5.926;2023-06-05T14:45:11;28.50;68.70
47336;DHT22;33068;51.990;5.926;2023-06-05T14:47:38;28.70;69.30
47336;DHT22;33068;51.990;5.926;2023-06-05T14:50:06;29.10;67.90
47336;DHT22;33068;51.990;5.926;2023-06-05T14:52:34;29.10;67.50
47336;DHT22;33068;51.990;5.926;2023-06-05T14:55:03;29.30;68.10
47336;DHT22;33068;51.990;5.926;2023-06-05T14:57:30;29.40;66.30
47336;DHT22;33068;51.990;5.926;2023-06-05T14:59:57;28.70;67.60
47336;DHT22;33068;51.990;5.926;2023-06-05T15:02:24;28.70;67.50
47336;DHT22;33068;51.990;5.926;2023-06-05T15:04:52;28.80;66.70
47336;DHT22;33068;51.990;5.926;2023-06-05T15:07:19;28.20;66.40
47336;DHT22;33068;51.990;5.926;2023-06-05T15:09:47;28.20;67.20
47336;DHT22;33068;51.990;5.926;2023-06-05T15:12:16;28.50;67.60
47336;DHT22;33068;51.990;5.926;2023-06-05T15:14:43;29.10;67.20
47336;DHT22;33068;51.990;5.926;2023-06-05T15:17:10;29.40;68.00
47336;DHT22;33068;51.990;5.926;2023-06-05T15:19:38;29.50;66.70
47336;DHT22;33068;51.990;5.926;2023-06-05T15:22:05;28.60;67.50
47336;DHT22;33068;51.990;5.926;2023-06-05T15:24:33;27.80;68.10
47336;DHT22;33068;51.990;5.926;2023-06-05T15:27:01;27.50;69.60
47336;DHT22;33068;51.990;5.926;2023-06-05T15:29:30;27.90;69.10
47336;DHT22;33068;51.990;5.926;2023-06-05T15:31:57;28.20;69.20
47336;DHT22;33068;51.990;5.926;2023-06-05T15:34:27;28.20;69.10
47336;DHT22;33068;51.990;5.926;2023-06-05T15:36:54;28.30;69.80
47336;DHT22;33068;51.990;5.926;2023-06-05T15:39:21;28.70;69.30
47336;DHT22;33068;51.990;5.926;2023-06-05T15:41:48;28.80;68.20
47336;DHT22;33068;51.990;5.926;2023-06-05T15:44:16;29.00;68.90
47336;DHT22;33068;51.990;5.926;2023-06-05T15:46:50;29.20;66.90
47336;DHT22;33068;51.990;5.926;2023-06-05T15:49:19;29.30;66.60
47336;DHT22;33068;51.990;5.926;2023-06-05T15:51:46;29.40;68.10
47336;DHT22;33068;51.990;5.926;2023-06-05T15:54:13;29.40;66.90
47336;DHT22;33068;51.990;5.926;2023-06-05T15:56:41;29.10;67.70